Flight Track Log - Related Links

Times and Time Zones

All times are in EDT time to prevent confusion due to time zone crossing. See the SWA378 flight status page for this flight to view local times or setup timezone preferences in your user account.

Time Position Orientation Groundspeed Altitude Reporting Facility
EDT Latitude Longitude Course Direction KTS MPH feet Rate Location/Type
Mon 12:01:00 PM 37.2833 -121.8500 139° Southeast 249 287 5,400  Level Northern Cal TRACON
Mon 12:02:11 PM 37.2322 -121.7781 132° Southeast 253 291 9,900 2,797 Climbing Oakland Center
Mon 12:03:13 PM 37.1653 -121.7003 137° Southeast 329 379 11,600 2,950 Climbing Oakland Center
Mon 12:05:00 PM 37.0810 -121.5140 138° Southeast  Level FlightAware Approximate
Mon 12:06:00 PM 36.8450 -121.3692 139° Southeast  Level Estimated
Mon 12:06:09 PM 36.9231 -121.4208 138° Southeast 393 452 21,600  Level Los Angeles Center
Mon 12:07:11 PM 36.8375 -121.3228 137° Southeast 405 466 24,100 2,129 Climbing Los Angeles Center
Mon 12:08:13 PM 36.7469 -121.2200 138° Southeast 423 487 26,000 2,000 Climbing Los Angeles Center
Mon 12:09:20 PM 36.6369 -121.0914 137° Southeast 447 514 28,400 1,907 Climbing Oakland Center
Mon 12:10:22 PM 36.5431 -120.9844 138° Southeast 455 524 30,100 1,956 Climbing Oakland Center
Mon 12:12:21 PM 36.3522 -120.7675 137° Southeast 462 532 34,300 1,624 Climbing Los Angeles Center
Mon 12:13:23 PM 36.2575 -120.6617 138° Southeast 460 529 35,000 226 Climbing Los Angeles Center
Mon 12:15:27 PM 36.0667 -120.4469 138° Southeast 462 532 35,000  Level Los Angeles Center
Mon 12:16:29 PM 35.9719 -120.3389 137° Southeast 443 510 35,000  Level Oakland Center
Mon 12:17:30 PM 35.8531 -120.2103 139° Southeast 466 536 35,000  Level Oakland Center
Mon 12:18:31 PM 35.7564 -120.1008 137° Southeast 470 541 35,000 -489 Level Oakland Center
Mon 12:20:00 PM 35.6504 -119.9837 141° Southeast  Level FlightAware Approximate
Mon 12:20:34 PM 35.5500 -119.8956 141° Southeast 480 552 33,500  Level Oakland Center
Mon 12:22:41 PM 35.3328 -119.7086 145° Southeast 475 547 31,500 -921 Descending Los Angeles Center
Mon 12:23:43 PM 35.2247 -119.6153 145° Southeast 474 545 30,600 -968 Descending Los Angeles Center
Mon 12:24:45 PM 35.1156 -119.5208 145° Southeast 477 549 29,500 -1,258 Descending Los Angeles Center
Mon 12:25:47 PM 34.9861 -119.4111 145° Southeast 472 543 28,000 -1,839 Descending Los Angeles Center
Mon 12:26:49 PM 34.8808 -119.3222 145° Southeast 463 533 25,700 -2,758 Descending Los Angeles Center
Mon 12:27:51 PM 34.7794 -119.2389 146° Southeast 446 513 22,300 -3,000 Descending Los Angeles Center
Mon 12:28:53 PM 34.6803 -119.1547 145° Southeast 438 504 19,500 -2,645 Descending Los Angeles Center
Mon 12:30:00 PM 34.5774 -119.0728 146° Southeast  Level FlightAware Approximate
Mon 12:30:57 PM 34.4822 -118.9894 146° Southeast 389 448 14,100  Level Los Angeles Center
Mon 12:33:00 PM 34.3630 -118.8797 140° Southeast  Level FlightAware Approximate
Mon 12:34:03 PM 34.2369 -118.8639 140° Southeast 287 330 10,500  Level Los Angeles Center
Mon 12:36:07 PM 34.0781 -118.8475 175° South 249 287 8,300 -1,129 Descending Los Angeles Center
Mon 12:37:09 PM 34.0161 -118.8561 187° South 227 261 7,000 -629 Descending Los Angeles Center
Mon 12:38:11 PM 33.9597 -118.8731 194° South 212 244 7,000 -774 Level Los Angeles Center
Mon 12:40:15 PM 33.9178 -118.7472 112° Southeast 190 219 4,600 -944 Descending Los Angeles Center
Mon 12:42:19 PM 33.9308 -118.6122 83° East 195 224 3,100 -839 Descending Los Angeles Center
Mon 12:43:21 PM 33.9372 -118.5503 83° East 186 214 2,000 -1,065 Descending Los Angeles Center
Mon 12:45:00 PM 33.9333 -118.4000 104° East  Level FlightAware Approximate
Mon 12:52:00 PM 33.9425 -118.4081 104° East  Level Estimated
Mon 12:53:00 PM 33.9425 -118.4081 104° East  Level Estimated
Mon 12:54:00 PM 33.9425 -118.4081 104° East  Level Estimated
Mon 12:55:00 PM 33.9425 -118.4081 104° East  Level Estimated

Login

Don't have an account? Register now (free) for customized features, flight alerts, and more!